createdAt,value
2023-03-03T00:00:23.928Z,68.96
2023-03-03T00:01:16.901Z,63.81
2023-03-03T00:02:16.993Z,66.87
2023-03-03T00:03:16.916Z,65.58
2023-03-03T00:04:16.907Z,66.55
2023-03-03T00:05:16.868Z,66.71
2023-03-03T00:06:16.869Z,61.39
2023-03-03T00:07:16.886Z,65.26
2023-03-03T00:08:16.866Z,69.13
2023-03-03T00:09:16.873Z,61.23
2023-03-03T00:10:16.855Z,66.39
2023-03-03T00:11:16.843Z,62.84
2023-03-03T00:12:16.843Z,66.55
2023-03-03T00:13:16.859Z,64.29
2023-03-03T00:14:16.818Z,65.90
2023-03-03T00:15:16.809Z,66.55
2023-03-03T00:16:16.830Z,66.87
2023-03-03T00:17:16.816Z,64.61
2023-03-03T00:18:16.824Z,63.65
2023-03-03T00:19:16.807Z,65.58
2023-03-03T00:20:16.781Z,67.03
2023-03-03T00:21:16.776Z,64.78
2023-03-03T00:22:16.798Z,63.33
2023-03-03T00:23:16.783Z,64.61
2023-03-03T00:24:16.772Z,67.03
2023-03-03T00:25:16.749Z,65.26
2023-03-03T00:26:16.740Z,67.35
2023-03-03T00:27:16.776Z,68.80
2023-03-03T00:28:16.735Z,67.19
2023-03-03T00:29:16.724Z,64.45
2023-03-03T00:30:16.722Z,62.84
2023-03-03T00:31:16.785Z,63.00
2023-03-03T00:32:16.753Z,63.65
2023-03-03T00:33:16.729Z,62.36
2023-03-03T00:34:16.710Z,64.94
2023-03-03T00:35:16.686Z,64.78
2023-03-03T00:36:16.701Z,65.58
2023-03-03T00:37:16.673Z,63.81
2023-03-03T00:38:16.684Z,65.10
2023-03-03T00:39:16.673Z,66.23
2023-03-03T00:40:16.678Z,66.55
2023-03-03T00:41:16.667Z,64.13
2023-03-03T00:42:16.653Z,65.74
2023-03-03T00:43:16.668Z,65.58
2023-03-03T00:44:16.645Z,66.55
2023-03-03T00:45:16.639Z,66.06
2023-03-03T00:46:16.627Z,69.13
2023-03-03T00:47:16.622Z,65.10
2023-03-03T00:48:16.639Z,67.84
2023-03-03T00:49:16.602Z,64.61
2023-03-03T00:50:16.593Z,67.51
2023-03-03T00:51:16.591Z,67.51
2023-03-03T00:52:16.571Z,65.90
2023-03-03T00:53:16.618Z,63.65
2023-03-03T00:54:16.567Z,68.80
2023-03-03T00:55:16.584Z,67.51
2023-03-03T00:56:16.573Z,65.26
2023-03-03T00:57:16.561Z,65.58
2023-03-03T00:58:16.556Z,65.90
2023-03-03T00:59:16.532Z,68.32
2023-03-03T01:00:16.532Z,61.07
2023-03-03T01:01:16.550Z,64.94
2023-03-03T01:02:16.547Z,67.03
2023-03-03T01:03:16.499Z,62.52
2023-03-03T01:04:16.497Z,65.74
2023-03-03T01:05:16.482Z,67.84
2023-03-03T01:06:16.475Z,66.55
2023-03-03T01:07:16.491Z,67.51
2023-03-03T01:08:16.484Z,67.19
2023-03-03T01:09:16.481Z,66.23
2023-03-03T01:10:16.452Z,67.19
2023-03-03T01:11:16.469Z,65.42
2023-03-03T01:12:16.433Z,64.29
2023-03-03T01:13:16.432Z,65.10
2023-03-03T01:14:16.476Z,67.03
2023-03-03T01:15:16.419Z,67.03
2023-03-03T01:16:16.426Z,65.10
2023-03-03T01:17:16.435Z,66.06
2023-03-03T01:18:16.392Z,60.75
2023-03-03T01:19:16.621Z,63.16
2023-03-03T01:20:16.439Z,64.13
2023-03-03T01:21:16.378Z,66.87
2023-03-03T01:22:16.384Z,64.61
2023-03-03T01:23:16.367Z,61.87
2023-03-03T01:24:16.365Z,63.49
2023-03-03T01:25:16.370Z,63.81
2023-03-03T01:26:16.368Z,64.29
2023-03-03T01:27:16.338Z,63.81
2023-03-03T01:28:16.337Z,65.58
2023-03-03T01:29:16.325Z,66.23
2023-03-03T01:30:16.340Z,63.33
2023-03-03T01:31:16.332Z,62.68
2023-03-03T01:32:16.352Z,63.65
2023-03-03T01:33:16.299Z,65.42
2023-03-03T01:34:16.302Z,64.45
2023-03-03T01:35:16.303Z,64.13
2023-03-03T01:36:16.304Z,64.13
2023-03-03T01:37:16.289Z,65.26
2023-03-03T01:38:16.320Z,64.29
2023-03-03T01:39:16.266Z,66.06
2023-03-03T01:40:16.265Z,64.94
2023-03-03T01:41:16.285Z,64.61
2023-03-03T01:42:16.252Z,64.45
2023-03-03T01:43:16.253Z,63.97
2023-03-03T01:44:16.253Z,59.46
2023-03-03T01:45:16.242Z,61.55
2023-03-03T01:46:16.228Z,63.16
2023-03-03T01:47:16.223Z,66.06
2023-03-03T01:48:16.224Z,65.10
2023-03-03T01:49:16.246Z,64.61
2023-03-03T01:50:16.214Z,67.68
2023-03-03T01:51:16.202Z,64.61
2023-03-03T01:52:16.195Z,62.84
2023-03-03T01:53:16.185Z,64.78
2023-03-03T01:54:16.191Z,67.51
2023-03-03T01:55:16.211Z,66.55
2023-03-03T01:56:16.173Z,64.78
2023-03-03T01:57:16.174Z,65.58
2023-03-03T01:58:16.154Z,64.29
2023-03-03T01:59:16.163Z,61.07
2023-03-03T02:00:16.160Z,67.03
2023-03-03T02:01:16.146Z,64.94
2023-03-03T02:02:16.143Z,64.45
2023-03-03T02:03:16.127Z,64.45
2023-03-03T02:04:16.119Z,65.42
2023-03-03T02:05:16.127Z,65.74
2023-03-03T02:06:16.123Z,64.78
2023-03-03T02:07:16.098Z,61.07
2023-03-03T02:08:16.094Z,66.55
2023-03-03T02:09:16.083Z,66.55
2023-03-03T02:10:16.074Z,66.06
2023-03-03T02:11:16.112Z,66.23
2023-03-03T02:12:16.057Z,66.71
2023-03-03T02:13:16.066Z,63.16
2023-03-03T02:14:16.056Z,62.04
2023-03-03T02:15:16.048Z,62.84
2023-03-03T02:16:16.127Z,62.68
2023-03-03T02:17:16.052Z,62.84
2023-03-03T02:18:16.029Z,63.81
2023-03-03T02:19:16.023Z,68.16
2023-03-03T02:20:16.018Z,66.06
2023-03-03T02:21:16.014Z,65.26
2023-03-03T02:22:16.000Z,66.71
2023-03-03T02:23:16.039Z,64.29
2023-03-03T02:24:16.003Z,65.10
2023-03-03T02:25:16.019Z,67.35
2023-03-03T02:26:15.993Z,68.00
2023-03-03T02:27:15.982Z,66.06
2023-03-03T02:28:15.972Z,64.45
2023-03-03T02:29:15.988Z,64.29
2023-03-03T02:30:15.993Z,61.23
2023-03-03T02:31:15.974Z,65.26
2023-03-03T02:32:15.991Z,66.06
2023-03-03T02:33:15.952Z,66.39
2023-03-03T02:34:15.932Z,66.06
2023-03-03T02:35:15.935Z,62.36
2023-03-03T02:36:15.945Z,61.39
2023-03-03T02:37:15.942Z,59.62
2023-03-03T02:38:15.925Z,64.94
2023-03-03T02:39:15.907Z,65.42
2023-03-03T02:40:15.917Z,63.97
2023-03-03T02:41:15.904Z,62.36
2023-03-03T02:42:15.917Z,63.49
2023-03-03T02:43:15.896Z,67.68
2023-03-03T02:44:15.892Z,63.65
2023-03-03T02:45:15.906Z,62.68
2023-03-03T02:46:15.887Z,60.59
2023-03-03T02:47:15.884Z,62.68
2023-03-03T02:48:15.847Z,65.74
2023-03-03T02:49:15.860Z,63.00
2023-03-03T02:50:15.829Z,64.61
2023-03-03T02:51:15.835Z,65.74
2023-03-03T02:52:15.813Z,66.55
2023-03-03T02:53:15.840Z,65.42
2023-03-03T02:54:15.812Z,67.51
2023-03-03T02:55:15.813Z,65.58
2023-03-03T02:56:15.791Z,65.10
2023-03-03T02:57:15.807Z,65.58
2023-03-03T02:58:15.781Z,65.74
2023-03-03T02:59:15.764Z,64.78
2023-03-03T03:00:15.771Z,63.00
2023-03-03T03:01:15.800Z,71.06
2023-03-03T03:02:15.768Z,64.13
2023-03-03T03:03:15.749Z,66.55
2023-03-03T03:04:15.834Z,65.90
2023-03-03T03:05:15.750Z,68.64
2023-03-03T03:06:15.722Z,62.04
2023-03-03T03:07:15.720Z,62.84
2023-03-03T03:08:15.712Z,65.26
2023-03-03T03:09:15.719Z,67.51
2023-03-03T03:10:15.724Z,67.35
2023-03-03T03:11:15.733Z,65.10
2023-03-03T03:12:15.687Z,65.26
2023-03-03T03:13:15.682Z,68.64
2023-03-03T03:14:15.677Z,63.81
2023-03-03T03:15:15.710Z,64.29
2023-03-03T03:16:15.677Z,62.36
2023-03-03T03:17:15.661Z,65.42
2023-03-03T03:18:15.659Z,67.84
2023-03-03T03:19:15.653Z,65.26
2023-03-03T03:20:15.656Z,63.00
2023-03-03T03:21:15.629Z,65.58
2023-03-03T03:22:15.645Z,66.23
2023-03-03T03:23:15.617Z,67.19
2023-03-03T03:24:15.611Z,67.68
2023-03-03T03:25:15.607Z,66.23
2023-03-03T03:26:15.597Z,69.45
2023-03-03T03:27:15.616Z,64.61
2023-03-03T03:28:15.575Z,63.00
2023-03-03T03:29:15.577Z,66.71
2023-03-03T03:30:15.558Z,63.65
2023-03-03T03:31:15.555Z,64.94
2023-03-03T03:32:15.582Z,68.32
2023-03-03T03:33:15.571Z,64.29
2023-03-03T03:34:15.542Z,64.61
2023-03-03T03:35:15.530Z,66.39
2023-03-03T03:36:15.523Z,65.10
2023-03-03T03:37:15.543Z,63.16
2023-03-03T03:38:15.514Z,67.03
2023-03-03T03:39:15.510Z,65.42
2023-03-03T03:40:15.506Z,66.55
2023-03-03T03:41:15.542Z,67.68
2023-03-03T03:42:15.490Z,66.06
2023-03-03T03:43:15.492Z,67.35
2023-03-03T03:44:15.488Z,66.23
2023-03-03T03:45:15.474Z,67.35
2023-03-03T03:46:15.492Z,65.10
2023-03-03T03:47:15.481Z,64.61
2023-03-03T03:48:15.454Z,65.58
2023-03-03T03:49:15.446Z,68.32
2023-03-03T03:50:15.436Z,65.26
2023-03-03T03:51:15.435Z,67.51
2023-03-03T03:52:15.440Z,65.58
2023-03-03T03:53:15.454Z,64.94
2023-03-03T03:54:15.412Z,65.10
2023-03-03T03:55:15.409Z,63.97
2023-03-03T03:56:15.400Z,65.74
2023-03-03T03:57:15.395Z,66.71
2023-03-03T03:58:15.402Z,66.39
2023-03-03T03:59:15.432Z,69.61
2023-03-03T04:00:15.438Z,69.13
2023-03-03T04:01:15.376Z,68.32
2023-03-03T04:02:15.449Z,67.35
2023-03-03T04:03:15.512Z,67.84
2023-03-03T04:04:15.348Z,65.42
2023-03-03T04:05:15.349Z,65.10
2023-03-03T04:06:15.371Z,68.32
2023-03-03T04:07:15.342Z,64.45
2023-03-03T04:08:15.336Z,67.51
2023-03-03T04:09:15.343Z,65.10
2023-03-03T04:10:15.315Z,66.06
2023-03-03T04:11:15.319Z,66.39
2023-03-03T04:12:15.297Z,69.93
2023-03-03T04:13:15.302Z,67.19
2023-03-03T04:14:15.348Z,67.51
2023-03-03T04:15:15.353Z,66.39
2023-03-03T04:16:15.368Z,65.74
2023-03-03T04:17:15.316Z,68.16
2023-03-03T04:18:15.283Z,68.64
2023-03-03T04:19:15.288Z,68.32
2023-03-03T04:20:15.261Z,64.45
2023-03-03T04:21:15.280Z,67.03
2023-03-03T04:22:15.251Z,67.19
2023-03-03T04:23:15.234Z,67.51
2023-03-03T04:24:15.251Z,68.16
2023-03-03T04:25:15.230Z,64.78
2023-03-03T04:26:15.234Z,67.84
2023-03-03T04:27:15.235Z,68.16
2023-03-03T04:28:15.212Z,69.13
2023-03-03T04:29:15.205Z,67.68
2023-03-03T04:30:15.201Z,68.48
2023-03-03T04:31:15.253Z,70.42
2023-03-03T04:32:15.219Z,68.32
2023-03-03T04:33:15.196Z,68.48
2023-03-03T04:34:15.162Z,68.16
2023-03-03T04:35:15.157Z,67.19
2023-03-03T04:36:15.147Z,68.32
2023-03-03T04:37:15.161Z,64.78
2023-03-03T04:38:15.144Z,67.51
2023-03-03T04:39:15.123Z,68.32
2023-03-03T04:40:15.132Z,68.16
2023-03-03T04:41:15.128Z,65.74
2023-03-03T04:42:15.106Z,65.90
2023-03-03T04:43:15.119Z,67.51
2023-03-03T04:44:15.084Z,67.68
2023-03-03T04:45:15.089Z,68.00
2023-03-03T04:46:15.269Z,65.42
2023-03-03T04:47:15.079Z,67.51
2023-03-03T04:48:15.090Z,65.10
2023-03-03T04:49:15.083Z,66.39
2023-03-03T04:50:15.058Z,65.10
2023-03-03T04:51:15.053Z,69.13
2023-03-03T04:52:15.048Z,68.48
2023-03-03T04:53:15.035Z,68.80
2023-03-03T04:54:15.050Z,66.71
2023-03-03T04:55:15.054Z,67.51
2023-03-03T04:56:15.048Z,67.51
2023-03-03T04:57:15.028Z,65.42
2023-03-03T04:58:15.008Z,68.48
2023-03-03T04:59:15.012Z,73.64
2023-03-03T05:00:15.004Z,69.45
2023-03-03T05:01:15.042Z,71.06
2023-03-03T05:02:15.018Z,68.64
2023-03-03T05:03:14.965Z,68.16
2023-03-03T05:04:15.023Z,66.39
2023-03-03T05:05:14.960Z,66.39
2023-03-03T05:06:14.948Z,65.58
2023-03-03T05:07:14.941Z,67.68
2023-03-03T05:08:14.954Z,67.84
2023-03-03T05:09:14.931Z,65.90
2023-03-03T05:10:14.946Z,69.13
2023-03-03T05:11:14.926Z,68.32
2023-03-03T05:12:14.910Z,69.13
2023-03-03T05:13:14.937Z,68.80
2023-03-03T05:14:14.881Z,67.51
2023-03-03T05:15:14.893Z,69.45
2023-03-03T05:16:14.925Z,68.80
2023-03-03T05:17:14.892Z,66.55
2023-03-03T05:18:14.866Z,67.51
2023-03-03T05:19:14.857Z,70.90
2023-03-03T05:20:14.855Z,66.06
2023-03-03T05:21:14.876Z,68.64
2023-03-03T05:22:14.843Z,68.64
2023-03-03T05:23:14.834Z,69.29
2023-03-03T05:24:14.813Z,70.09
2023-03-03T05:25:14.834Z,67.84
2023-03-03T05:26:14.808Z,69.45
2023-03-03T05:27:14.804Z,68.64
2023-03-03T05:28:14.796Z,68.00
2023-03-03T05:29:14.811Z,69.61
2023-03-03T05:30:14.784Z,69.93
2023-03-03T05:31:14.946Z,69.13
2023-03-03T05:32:14.834Z,69.61
2023-03-03T05:33:14.765Z,69.29
2023-03-03T05:34:14.779Z,67.03
2023-03-03T05:35:14.772Z,68.00
2023-03-03T05:36:14.764Z,69.93
2023-03-03T05:37:14.747Z,67.51
2023-03-03T05:38:14.752Z,69.29
2023-03-03T05:39:14.726Z,68.96
2023-03-03T05:40:14.721Z,68.80
2023-03-03T05:41:14.740Z,68.16
2023-03-03T05:42:14.722Z,68.32
2023-03-03T05:43:14.696Z,70.09
2023-03-03T05:44:14.697Z,69.77
2023-03-03T05:45:14.680Z,68.64
2023-03-03T05:46:14.719Z,69.61
2023-03-03T05:47:14.667Z,68.16
2023-03-03T05:48:14.690Z,73.15
2023-03-03T05:49:14.659Z,72.67
2023-03-03T05:50:14.652Z,68.00
2023-03-03T05:51:14.646Z,68.64
2023-03-03T05:52:14.658Z,70.90
2023-03-03T05:53:14.654Z,69.13
2023-03-03T05:54:14.615Z,69.77
2023-03-03T05:55:14.621Z,72.83
2023-03-03T05:56:14.616Z,71.87
2023-03-03T05:57:14.606Z,70.74
2023-03-03T05:58:14.594Z,69.13
2023-03-03T05:59:14.612Z,68.80
2023-03-03T06:00:14.614Z,70.09
2023-03-03T06:01:21.591Z,69.29
2023-03-03T06:02:14.573Z,69.45
2023-03-03T06:03:14.595Z,70.09
2023-03-03T06:04:14.576Z,68.16
2023-03-03T06:05:14.577Z,70.09
2023-03-03T06:06:14.566Z,68.32
2023-03-03T06:07:14.552Z,69.45
2023-03-03T06:08:14.545Z,66.71
2023-03-03T06:09:14.559Z,66.55
2023-03-03T06:10:14.519Z,72.51
2023-03-03T06:11:14.513Z,70.74
2023-03-03T06:12:14.501Z,69.93
2023-03-03T06:13:14.519Z,68.80
2023-03-03T06:14:14.497Z,74.12
2023-03-03T06:15:14.594Z,69.13
2023-03-03T06:16:14.503Z,68.48
2023-03-03T06:17:14.486Z,68.32
2023-03-03T06:18:14.471Z,70.25
2023-03-03T06:19:14.464Z,71.54
2023-03-03T06:20:14.470Z,69.45
2023-03-03T06:21:14.450Z,69.13
2023-03-03T06:22:14.486Z,69.77
2023-03-03T06:23:14.449Z,67.68
2023-03-03T06:24:14.454Z,68.80
2023-03-03T06:25:14.435Z,68.64
2023-03-03T06:26:14.411Z,69.93
2023-03-03T06:27:14.413Z,72.67
2023-03-03T06:28:14.404Z,68.64
2023-03-03T06:29:15.709Z,70.74
2023-03-03T06:30:14.411Z,71.06
2023-03-03T06:31:14.410Z,69.61
2023-03-03T06:32:14.508Z,69.13
2023-03-03T06:33:14.374Z,68.32
2023-03-03T06:34:14.362Z,70.25
2023-03-03T06:35:14.355Z,70.58
2023-03-03T06:36:14.358Z,69.13
2023-03-03T06:37:14.338Z,69.61
2023-03-03T06:38:14.338Z,72.83
2023-03-03T06:39:14.340Z,69.45
2023-03-03T06:40:14.329Z,68.80
2023-03-03T06:41:14.328Z,70.90
2023-03-03T06:42:14.343Z,70.58
2023-03-03T06:43:14.323Z,69.93
2023-03-03T06:44:14.297Z,71.22
2023-03-03T06:45:14.299Z,72.03
2023-03-03T06:46:14.314Z,71.06
2023-03-03T06:47:14.323Z,70.09
2023-03-03T06:48:14.292Z,69.93
2023-03-03T06:49:14.287Z,68.64
2023-03-03T06:50:14.272Z,69.77
2023-03-03T06:51:14.249Z,69.45
2023-03-03T06:52:14.260Z,70.58
2023-03-03T06:53:14.229Z,70.09
2023-03-03T06:54:14.240Z,69.77
2023-03-03T06:55:14.261Z,71.38
2023-03-03T06:56:14.219Z,70.25
2023-03-03T06:57:14.217Z,70.74
2023-03-03T06:58:14.215Z,70.25
2023-03-03T06:59:14.226Z,69.61
2023-03-03T07:00:14.227Z,69.45
2023-03-03T07:01:14.284Z,68.64
2023-03-03T07:02:14.187Z,69.77
2023-03-03T07:03:14.178Z,75.73
2023-03-03T07:04:14.211Z,69.29
2023-03-03T07:05:14.191Z,67.84
2023-03-03T07:06:14.169Z,68.00
2023-03-03T07:07:14.164Z,69.77
2023-03-03T07:08:14.185Z,67.51
2023-03-03T07:09:14.152Z,73.32
2023-03-03T07:10:14.161Z,69.93
2023-03-03T07:11:14.156Z,69.93
2023-03-03T07:12:14.136Z,70.42
2023-03-03T07:13:14.126Z,70.74
2023-03-03T07:14:14.114Z,71.38
2023-03-03T07:15:14.129Z,69.61
2023-03-03T07:16:14.132Z,69.13
2023-03-03T07:17:14.110Z,69.77
2023-03-03T07:18:14.106Z,69.93
2023-03-03T07:19:14.081Z,67.19
2023-03-03T07:20:14.074Z,69.77
2023-03-03T07:21:14.081Z,68.32
2023-03-03T07:22:14.081Z,69.45
2023-03-03T07:23:14.080Z,71.06
2023-03-03T07:24:14.069Z,69.13
2023-03-03T07:25:14.046Z,67.84
2023-03-03T07:26:14.042Z,70.09
2023-03-03T07:27:14.028Z,72.03
2023-03-03T07:28:14.047Z,67.19
2023-03-03T07:29:14.052Z,69.29
2023-03-03T07:30:14.091Z,79.60
2023-03-03T07:31:14.027Z,69.13
2023-03-03T07:32:14.053Z,68.32
2023-03-03T07:33:13.994Z,69.93
2023-03-03T07:34:14.020Z,72.03
2023-03-03T07:35:13.996Z,68.80
2023-03-03T07:36:13.994Z,69.77
2023-03-03T07:37:13.976Z,69.29
2023-03-03T07:38:13.955Z,70.09
2023-03-03T07:39:13.960Z,69.45
2023-03-03T07:40:13.941Z,69.13
2023-03-03T07:41:13.958Z,69.29
2023-03-03T07:42:13.934Z,69.61
2023-03-03T07:43:13.925Z,69.61
2023-03-03T07:44:13.923Z,69.93
2023-03-03T07:45:13.917Z,70.09
2023-03-03T07:46:13.963Z,72.19
2023-03-03T07:47:13.935Z,70.42
2023-03-03T07:48:13.901Z,71.38
2023-03-03T07:49:13.886Z,70.58
2023-03-03T07:50:13.914Z,69.61
2023-03-03T07:51:13.910Z,71.54
2023-03-03T07:52:13.865Z,68.64
2023-03-03T07:53:13.869Z,71.87
2023-03-03T07:54:13.874Z,70.09
2023-03-03T07:55:13.856Z,69.93
2023-03-03T07:56:13.855Z,70.90
2023-03-03T07:57:13.841Z,71.70
2023-03-03T07:58:13.852Z,69.61
2023-03-03T07:59:13.836Z,68.32
2023-03-03T08:00:13.813Z,70.74
2023-03-03T08:01:13.830Z,65.58
2023-03-03T08:02:13.829Z,68.48
2023-03-03T08:03:13.819Z,70.09
2023-03-03T08:04:13.887Z,68.00
2023-03-03T08:05:13.943Z,68.32
2023-03-03T08:06:13.777Z,70.25
2023-03-03T08:07:13.777Z,69.77
2023-03-03T08:08:13.805Z,69.13
2023-03-03T08:09:13.789Z,66.23
2023-03-03T08:10:13.813Z,68.32
2023-03-03T08:11:13.750Z,68.96
2023-03-03T08:12:13.750Z,68.16
2023-03-03T08:13:13.723Z,67.51
2023-03-03T08:14:13.750Z,69.13
2023-03-03T08:15:13.706Z,69.77
2023-03-03T08:16:13.842Z,67.51
2023-03-03T08:17:13.706Z,70.74
2023-03-03T08:18:13.705Z,70.25
2023-03-03T08:19:13.681Z,70.09
2023-03-03T08:20:13.693Z,67.51
2023-03-03T08:21:13.684Z,68.64
2023-03-03T08:22:13.665Z,67.51
2023-03-03T08:23:13.678Z,69.45
2023-03-03T08:24:13.650Z,69.61
2023-03-03T08:25:13.670Z,66.71
2023-03-03T08:26:13.637Z,67.03
2023-03-03T08:27:13.639Z,69.29
2023-03-03T08:28:13.634Z,68.00
2023-03-03T08:29:13.618Z,68.16
2023-03-03T08:30:13.668Z,68.80
2023-03-03T08:31:24.867Z,68.64
2023-03-03T08:32:14.682Z,68.64
2023-03-03T08:33:13.601Z,67.84
2023-03-03T08:34:13.581Z,69.61
2023-03-03T08:35:13.594Z,67.35
2023-03-03T08:36:13.579Z,67.68
2023-03-03T08:37:13.562Z,67.35
2023-03-03T08:38:13.547Z,69.93
2023-03-03T08:39:13.566Z,68.80
2023-03-03T08:40:13.543Z,69.61
2023-03-03T08:41:13.551Z,66.87
2023-03-03T08:42:15.904Z,68.32
2023-03-03T08:43:13.513Z,68.96
2023-03-03T08:44:13.509Z,70.25
2023-03-03T08:45:13.526Z,68.00
2023-03-03T08:46:13.592Z,65.58
2023-03-03T08:47:13.508Z,71.06
2023-03-03T08:48:13.485Z,66.39
2023-03-03T08:49:13.496Z,68.48
2023-03-03T08:50:13.496Z,68.48
2023-03-03T08:51:13.465Z,68.32
2023-03-03T08:52:13.451Z,67.03
2023-03-03T08:53:13.507Z,67.51
2023-03-03T08:54:13.443Z,68.32
2023-03-03T08:55:13.487Z,68.16
2023-03-03T08:56:13.437Z,68.00
2023-03-03T08:57:13.414Z,70.90
2023-03-03T08:58:13.415Z,68.00
2023-03-03T08:59:13.447Z,68.48
2023-03-03T09:00:13.401Z,70.90
2023-03-03T09:01:13.442Z,71.87
2023-03-03T09:02:13.377Z,68.00
2023-03-03T09:03:13.391Z,69.13
2023-03-03T09:04:13.428Z,68.80
2023-03-03T09:05:13.372Z,68.48
2023-03-03T09:06:13.353Z,69.13
2023-03-03T09:07:13.381Z,68.32
2023-03-03T09:08:13.343Z,69.77
2023-03-03T09:09:13.343Z,70.09
2023-03-03T09:10:13.394Z,67.84
2023-03-03T09:11:13.334Z,67.03
2023-03-03T09:12:13.323Z,69.13
2023-03-03T09:13:13.327Z,70.25
2023-03-03T09:14:13.338Z,71.06
2023-03-03T09:15:13.344Z,69.77
2023-03-03T09:16:13.349Z,67.84
2023-03-03T09:17:13.326Z,69.77
2023-03-03T09:18:13.301Z,68.32
2023-03-03T09:19:13.276Z,69.29
2023-03-03T09:20:13.264Z,67.35
2023-03-03T09:21:13.295Z,67.51
2023-03-03T09:22:13.285Z,70.09
2023-03-03T09:23:13.252Z,69.61
2023-03-03T09:24:13.261Z,67.68
2023-03-03T09:25:13.234Z,68.80
2023-03-03T09:26:13.260Z,68.32
2023-03-03T09:27:13.219Z,68.64
2023-03-03T09:28:13.225Z,71.06
2023-03-03T09:29:13.203Z,68.96
2023-03-03T09:30:13.196Z,67.84
2023-03-03T09:31:13.252Z,69.61
2023-03-03T09:32:13.282Z,68.16
2023-03-03T09:33:13.184Z,70.09
2023-03-03T09:34:13.176Z,70.90
2023-03-03T09:35:13.184Z,70.09
2023-03-03T09:36:13.159Z,69.61
2023-03-03T09:37:15.374Z,69.45
2023-03-03T09:38:13.150Z,72.19
2023-03-03T09:39:13.132Z,69.77
2023-03-03T09:40:13.144Z,68.48
2023-03-03T09:41:13.123Z,69.29
2023-03-03T09:42:13.121Z,69.45
2023-03-03T09:43:13.155Z,68.16
2023-03-03T09:44:13.132Z,68.16
2023-03-03T09:45:13.112Z,71.06
2023-03-03T09:46:13.311Z,68.48
2023-03-03T09:47:13.084Z,68.48
2023-03-03T09:48:13.072Z,68.00
2023-03-03T09:49:13.096Z,70.25
2023-03-03T09:50:13.065Z,67.03
2023-03-03T09:51:13.110Z,68.32
2023-03-03T09:52:13.108Z,67.84
2023-03-03T09:53:13.049Z,68.32
2023-03-03T09:54:13.049Z,70.09
2023-03-03T09:55:13.034Z,70.09
2023-03-03T09:56:13.021Z,68.00
2023-03-03T09:57:13.025Z,69.45
2023-03-03T09:58:13.044Z,69.93
2023-03-03T09:59:12.998Z,69.93
2023-03-03T10:00:13.015Z,68.16
2023-03-03T10:01:13.025Z,68.80
2023-03-03T10:02:12.996Z,68.00
2023-03-03T10:03:12.979Z,68.32
2023-03-03T10:04:13.071Z,66.87
2023-03-03T10:05:14.533Z,67.19
2023-03-03T10:06:12.981Z,67.84
2023-03-03T10:07:12.959Z,69.93
2023-03-03T10:08:12.938Z,69.13
2023-03-03T10:09:12.942Z,68.48
2023-03-03T10:10:12.927Z,69.45
2023-03-03T10:11:13.000Z,68.32
2023-03-03T10:12:12.927Z,70.25
2023-03-03T10:13:12.901Z,68.80
2023-03-03T10:14:12.929Z,68.80
2023-03-03T10:15:12.900Z,70.09
2023-03-03T10:16:12.978Z,69.77
2023-03-03T10:17:12.883Z,68.64
2023-03-03T10:18:12.906Z,69.93
2023-03-03T10:19:12.858Z,69.13
2023-03-03T10:20:12.848Z,69.13
2023-03-03T10:21:12.856Z,69.13
2023-03-03T10:22:12.856Z,70.25
2023-03-03T10:23:12.859Z,69.45
2023-03-03T10:24:12.853Z,68.64
2023-03-03T10:25:12.827Z,68.64
2023-03-03T10:26:12.819Z,69.93
2023-03-03T10:27:14.215Z,68.32
2023-03-03T10:28:12.828Z,67.51
2023-03-03T10:29:12.848Z,70.90
2023-03-03T10:30:12.790Z,68.80
2023-03-03T10:31:15.837Z,69.77
2023-03-03T10:32:14.582Z,68.80
2023-03-03T10:33:13.424Z,67.19
2023-03-03T10:34:12.756Z,67.03
2023-03-03T10:35:12.904Z,69.13
2023-03-03T10:36:13.190Z,69.13
2023-03-03T10:37:12.747Z,70.25
2023-03-03T10:38:12.740Z,69.45
2023-03-03T10:39:12.757Z,69.13
2023-03-03T10:40:12.733Z,71.22
2023-03-03T10:41:12.731Z,69.13
2023-03-03T10:42:12.744Z,68.32
2023-03-03T10:43:22.477Z,69.45
2023-03-03T10:44:13.702Z,69.61
2023-03-03T10:45:12.748Z,68.32
2023-03-03T10:46:12.710Z,70.09
2023-03-03T10:47:12.667Z,70.25
2023-03-03T10:48:12.649Z,69.93
2023-03-03T10:49:12.649Z,69.13
2023-03-03T10:50:12.661Z,70.42
2023-03-03T10:51:12.650Z,66.71
2023-03-03T10:52:12.635Z,71.06
2023-03-03T10:53:12.668Z,68.16
2023-03-03T10:54:12.648Z,68.16
2023-03-03T10:55:12.620Z,71.54
2023-03-03T10:56:12.600Z,69.61
2023-03-03T10:57:12.592Z,67.19
2023-03-03T10:58:12.593Z,68.64
2023-03-03T10:59:12.634Z,67.51
2023-03-03T11:00:12.573Z,68.48
2023-03-03T11:01:12.616Z,66.71
2023-03-03T11:02:12.584Z,70.42
2023-03-03T11:03:12.558Z,68.64
2023-03-03T11:04:12.594Z,66.06
2023-03-03T11:05:12.555Z,69.45
2023-03-03T11:06:12.548Z,71.22
2023-03-03T11:07:12.547Z,71.06
2023-03-03T11:08:12.607Z,65.90
2023-03-03T11:09:12.546Z,68.16
2023-03-03T11:10:12.515Z,68.32
2023-03-03T11:11:12.504Z,68.80
2023-03-03T11:12:12.520Z,70.58
2023-03-03T11:13:12.506Z,70.09
2023-03-03T11:14:12.482Z,68.48
2023-03-03T11:15:12.533Z,66.87
2023-03-03T11:16:12.478Z,67.84
2023-03-03T11:17:12.470Z,70.09
2023-03-03T11:18:12.474Z,71.06
2023-03-03T11:19:12.469Z,68.16
2023-03-03T11:20:12.460Z,67.84
2023-03-03T11:21:12.499Z,69.61
2023-03-03T11:22:12.432Z,69.13
2023-03-03T11:23:12.431Z,68.48
2023-03-03T11:24:12.473Z,74.93
2023-03-03T11:25:12.419Z,74.12
2023-03-03T11:26:12.417Z,68.32
2023-03-03T11:27:12.416Z,69.61
2023-03-03T11:28:12.401Z,69.93
2023-03-03T11:29:12.407Z,68.48
2023-03-03T11:30:12.396Z,68.64
2023-03-03T11:31:12.418Z,68.00
2023-03-03T11:32:12.465Z,66.39
2023-03-03T11:33:12.376Z,66.55
2023-03-03T11:34:12.357Z,68.96
2023-03-03T11:35:12.364Z,71.54
2023-03-03T11:36:12.368Z,67.51
2023-03-03T11:37:12.362Z,69.45
2023-03-03T11:38:12.336Z,68.48
2023-03-03T11:39:12.383Z,68.80
2023-03-03T11:40:12.362Z,68.32
2023-03-03T11:41:12.340Z,70.58
2023-03-03T11:42:12.308Z,68.48
2023-03-03T11:43:13.124Z,67.84
2023-03-03T11:44:12.337Z,64.94
2023-03-03T11:45:12.303Z,66.39
2023-03-03T11:46:12.342Z,67.68
2023-03-03T11:47:12.300Z,68.96
2023-03-03T11:48:12.265Z,68.48
2023-03-03T11:49:12.266Z,67.51
2023-03-03T11:50:12.259Z,70.58
2023-03-03T11:51:12.248Z,67.51
2023-03-03T11:52:12.282Z,69.13
2023-03-03T11:53:12.255Z,68.80
2023-03-03T11:54:12.246Z,69.13
2023-03-03T11:55:12.238Z,68.16
2023-03-03T11:56:12.231Z,67.19
2023-03-03T11:57:12.265Z,69.61
2023-03-03T11:58:12.222Z,68.64
2023-03-03T11:59:12.223Z,67.35
2023-03-03T12:00:12.207Z,66.71
2023-03-03T12:01:12.200Z,66.87
2023-03-03T12:02:19.258Z,66.71
2023-03-03T12:03:12.181Z,67.84
2023-03-03T12:04:12.204Z,67.68
2023-03-03T12:05:12.164Z,68.16
2023-03-03T12:06:12.986Z,66.71
2023-03-03T12:07:19.023Z,66.55
2023-03-03T12:08:13.159Z,67.68
2023-03-03T12:09:12.125Z,67.03
2023-03-03T12:10:12.161Z,67.03
2023-03-03T12:11:12.113Z,69.45
2023-03-03T12:12:12.108Z,68.32
2023-03-03T12:13:12.108Z,68.32
2023-03-03T12:14:12.092Z,67.68
2023-03-03T12:15:12.111Z,67.84
2023-03-03T12:16:12.152Z,68.64
2023-03-03T12:17:12.083Z,68.48
2023-03-03T12:18:12.075Z,69.61
2023-03-03T12:19:12.075Z,68.96
2023-03-03T12:20:12.061Z,68.80
2023-03-03T12:21:12.086Z,67.51
2023-03-03T12:22:12.076Z,67.19
2023-03-03T12:23:12.056Z,67.35
2023-03-03T12:24:12.086Z,67.35
2023-03-03T12:25:12.065Z,66.23
2023-03-03T12:26:12.041Z,67.19
2023-03-03T12:27:12.029Z,68.16
2023-03-03T12:28:12.063Z,67.51
2023-03-03T12:29:12.030Z,68.16
2023-03-03T12:30:12.003Z,69.61
2023-03-03T12:31:12.070Z,68.32
2023-03-03T12:32:12.041Z,66.87
2023-03-03T12:33:12.017Z,68.32
2023-03-03T12:34:12.023Z,68.16
2023-03-03T12:35:11.993Z,70.09
2023-03-03T12:36:11.971Z,67.68
2023-03-03T12:37:11.961Z,70.25
2023-03-03T12:38:11.981Z,70.25
2023-03-03T12:39:12.035Z,68.32
2023-03-03T12:40:11.966Z,67.35
2023-03-03T12:41:11.938Z,67.51
2023-03-03T12:42:11.926Z,67.35
2023-03-03T12:43:11.973Z,68.64
2023-03-03T12:44:11.953Z,67.03
2023-03-03T12:45:11.914Z,67.68
2023-03-03T12:46:11.971Z,68.96
2023-03-03T12:47:11.907Z,66.23
2023-03-03T12:48:11.894Z,68.00
2023-03-03T12:49:11.904Z,66.23
2023-03-03T12:50:11.901Z,68.00
2023-03-03T12:51:11.918Z,69.93
2023-03-03T12:52:11.872Z,66.06